sensor_id;sensor_type;location;lat;lon;timestamp;pressure;altitude;pressure_sealevel;temperature
11424;BMP180;5768;51.476;7.210;2024-03-02T00:01:35;98759.00;;;11.10
11424;BMP180;5768;51.476;7.210;2024-03-02T00:06:37;98761.00;;;11.20
11424;BMP180;5768;51.476;7.210;2024-03-02T00:11:41;98748.00;;;11.20
11424;BMP180;5768;51.476;7.210;2024-03-02T00:16:44;98753.00;;;11.30
11424;BMP180;5768;51.476;7.210;2024-03-02T00:21:56;98758.00;;;11.40
11424;BMP180;5768;51.476;7.210;2024-03-02T00:26:59;98769.00;;;11.50
11424;BMP180;5768;51.476;7.210;2024-03-02T00:32:02;98764.00;;;11.50
11424;BMP180;5768;51.476;7.210;2024-03-02T00:37:05;98756.00;;;11.40
11424;BMP180;5768;51.476;7.210;2024-03-02T00:42:12;98750.00;;;11.30
11424;BMP180;5768;51.476;7.210;2024-03-02T00:47:14;98743.00;;;11.30
11424;BMP180;5768;51.476;7.210;2024-03-02T00:52:17;98733.00;;;11.30
11424;BMP180;5768;51.476;7.210;2024-03-02T00:57:23;98731.00;;;11.30
11424;BMP180;5768;51.476;7.210;2024-03-02T01:02:28;98731.00;;;11.30
11424;BMP180;5768;51.476;7.210;2024-03-02T01:07:31;98725.00;;;11.30
11424;BMP180;5768;51.476;7.210;2024-03-02T01:12:35;98728.00;;;11.50
11424;BMP180;5768;51.476;7.210;2024-03-02T01:17:37;98737.00;;;11.60
11424;BMP180;5768;51.476;7.210;2024-03-02T01:22:40;98739.00;;;11.80
11424;BMP180;5768;51.476;7.210;2024-03-02T01:27:43;98725.00;;;11.80
11424;BMP180;5768;51.476;7.210;2024-03-02T01:32:45;98734.00;;;12.00
11424;BMP180;5768;51.476;7.210;2024-03-02T01:37:48;98739.00;;;12.10
11424;BMP180;5768;51.476;7.210;2024-03-02T01:42:52;98748.00;;;12.10
11424;BMP180;5768;51.476;7.210;2024-03-02T01:47:54;98728.00;;;12.20
11424;BMP180;5768;51.476;7.210;2024-03-02T01:52:57;98734.00;;;12.10
11424;BMP180;5768;51.476;7.210;2024-03-02T01:58:01;98726.00;;;12.00
11424;BMP180;5768;51.476;7.210;2024-03-02T02:03:04;98714.00;;;11.70
11424;BMP180;5768;51.476;7.210;2024-03-02T02:08:07;98723.00;;;11.60
11424;BMP180;5768;51.476;7.210;2024-03-02T02:13:11;98717.00;;;11.60
11424;BMP180;5768;51.476;7.210;2024-03-02T02:18:14;98718.00;;;11.60
11424;BMP180;5768;51.476;7.210;2024-03-02T02:23:17;98700.00;;;11.70
11424;BMP180;5768;51.476;7.210;2024-03-02T02:28:22;98706.00;;;11.70
11424;BMP180;5768;51.476;7.210;2024-03-02T02:33:26;98691.00;;;11.80
11424;BMP180;5768;51.476;7.210;2024-03-02T02:38:32;98712.00;;;12.00
11424;BMP180;5768;51.476;7.210;2024-03-02T02:43:35;98711.00;;;12.10
11424;BMP180;5768;51.476;7.210;2024-03-02T02:48:37;98700.00;;;12.20
11424;BMP180;5768;51.476;7.210;2024-03-02T02:53:40;98697.00;;;12.10
11424;BMP180;5768;51.476;7.210;2024-03-02T02:58:43;98704.00;;;12.00
11424;BMP180;5768;51.476;7.210;2024-03-02T03:03:49;98699.00;;;12.00
11424;BMP180;5768;51.476;7.210;2024-03-02T03:08:52;98706.00;;;12.10
11424;BMP180;5768;51.476;7.210;2024-03-02T03:13:55;98697.00;;;12.20
11424;BMP180;5768;51.476;7.210;2024-03-02T03:18:57;98698.00;;;12.30
11424;BMP180;5768;51.476;7.210;2024-03-02T03:24:00;98696.00;;;12.40
11424;BMP180;5768;51.476;7.210;2024-03-02T03:29:03;98695.00;;;12.50
11424;BMP180;5768;51.476;7.210;2024-03-02T03:34:05;98709.00;;;12.60
11424;BMP180;5768;51.476;7.210;2024-03-02T03:39:09;98711.00;;;12.60
11424;BMP180;5768;51.476;7.210;2024-03-02T03:44:11;98708.00;;;12.70
11424;BMP180;5768;51.476;7.210;2024-03-02T03:49:16;98718.00;;;12.70
11424;BMP180;5768;51.476;7.210;2024-03-02T03:54:20;98717.00;;;12.70
11424;BMP180;5768;51.476;7.210;2024-03-02T03:59:22;98716.00;;;12.70
11424;BMP180;5768;51.476;7.210;2024-03-02T04:04:27;98721.00;;;12.60
11424;BMP180;5768;51.476;7.210;2024-03-02T04:09:31;98731.00;;;12.60
11424;BMP180;5768;51.476;7.210;2024-03-02T04:14:33;98717.00;;;12.60
11424;BMP180;5768;51.476;7.210;2024-03-02T04:19:35;98734.00;;;12.60
11424;BMP180;5768;51.476;7.210;2024-03-02T04:24:39;98733.00;;;12.50
11424;BMP180;5768;51.476;7.210;2024-03-02T04:29:41;98731.00;;;12.60
11424;BMP180;5768;51.476;7.210;2024-03-02T04:34:43;98735.00;;;12.60
11424;BMP180;5768;51.476;7.210;2024-03-02T04:39:47;98739.00;;;12.60
11424;BMP180;5768;51.476;7.210;2024-03-02T04:44:49;98738.00;;;12.60
11424;BMP180;5768;51.476;7.210;2024-03-02T04:49:54;98729.00;;;12.40
11424;BMP180;5768;51.476;7.210;2024-03-02T04:54:58;98739.00;;;12.10
11424;BMP180;5768;51.476;7.210;2024-03-02T05:00:24;98739.00;;;11.90
11424;BMP180;5768;51.476;7.210;2024-03-02T05:05:26;98750.00;;;11.80
11424;BMP180;5768;51.476;7.210;2024-03-02T05:10:30;98743.00;;;11.70
11424;BMP180;5768;51.476;7.210;2024-03-02T05:15:32;98739.00;;;11.60
11424;BMP180;5768;51.476;7.210;2024-03-02T05:20:34;98734.00;;;11.50
11424;BMP180;5768;51.476;7.210;2024-03-02T05:25:39;98746.00;;;11.50
11424;BMP180;5768;51.476;7.210;2024-03-02T05:30:42;98739.00;;;11.40
11424;BMP180;5768;51.476;7.210;2024-03-02T05:35:45;98762.00;;;11.40
11424;BMP180;5768;51.476;7.210;2024-03-02T05:40:49;98754.00;;;11.40
11424;BMP180;5768;51.476;7.210;2024-03-02T05:45:51;98741.00;;;11.40
11424;BMP180;5768;51.476;7.210;2024-03-02T05:50:53;98736.00;;;11.40
11424;BMP180;5768;51.476;7.210;2024-03-02T05:55:57;98739.00;;;11.30
11424;BMP180;5768;51.476;7.210;2024-03-02T06:00:59;98753.00;;;11.20
11424;BMP180;5768;51.476;7.210;2024-03-02T06:06:02;98757.00;;;11.20
11424;BMP180;5768;51.476;7.210;2024-03-02T06:11:05;98761.00;;;11.10
11424;BMP180;5768;51.476;7.210;2024-03-02T06:16:08;98760.00;;;11.00
11424;BMP180;5768;51.476;7.210;2024-03-02T06:21:10;98760.00;;;11.10
11424;BMP180;5768;51.476;7.210;2024-03-02T06:26:13;98760.00;;;11.10
11424;BMP180;5768;51.476;7.210;2024-03-02T06:31:15;98765.00;;;11.00
11424;BMP180;5768;51.476;7.210;2024-03-02T06:36:18;98781.00;;;10.90
11424;BMP180;5768;51.476;7.210;2024-03-02T06:41:21;98792.00;;;10.90
11424;BMP180;5768;51.476;7.210;2024-03-02T06:46:23;98795.00;;;10.90
11424;BMP180;5768;51.476;7.210;2024-03-02T06:51:26;98799.00;;;10.90
11424;BMP180;5768;51.476;7.210;2024-03-02T06:56:29;98802.00;;;10.90
11424;BMP180;5768;51.476;7.210;2024-03-02T07:01:33;98806.00;;;11.00
11424;BMP180;5768;51.476;7.210;2024-03-02T07:06:36;98821.00;;;11.10
11424;BMP180;5768;51.476;7.210;2024-03-02T07:11:40;98809.00;;;11.10
11424;BMP180;5768;51.476;7.210;2024-03-02T07:16:42;98826.00;;;11.20
11424;BMP180;5768;51.476;7.210;2024-03-02T07:21:44;98833.00;;;11.40
11424;BMP180;5768;51.476;7.210;2024-03-02T07:26:48;98823.00;;;11.40
11424;BMP180;5768;51.476;7.210;2024-03-02T07:31:50;98833.00;;;11.60
11424;BMP180;5768;51.476;7.210;2024-03-02T07:36:53;98829.00;;;11.70
11424;BMP180;5768;51.476;7.210;2024-03-02T07:41:56;98847.00;;;12.00
11424;BMP180;5768;51.476;7.210;2024-03-02T07:46:59;98830.00;;;12.20
11424;BMP180;5768;51.476;7.210;2024-03-02T07:52:01;98836.00;;;12.30
11424;BMP180;5768;51.476;7.210;2024-03-02T07:57:05;98845.00;;;12.40
11424;BMP180;5768;51.476;7.210;2024-03-02T08:02:07;98846.00;;;12.50
11424;BMP180;5768;51.476;7.210;2024-03-02T08:07:10;98851.00;;;12.50
11424;BMP180;5768;51.476;7.210;2024-03-02T08:12:15;98845.00;;;12.50
11424;BMP180;5768;51.476;7.210;2024-03-02T08:17:19;98839.00;;;12.60
11424;BMP180;5768;51.476;7.210;2024-03-02T08:22:21;98861.00;;;12.70
11424;BMP180;5768;51.476;7.210;2024-03-02T08:27:24;98877.00;;;13.00
11424;BMP180;5768;51.476;7.210;2024-03-02T08:32:27;98877.00;;;13.30
11424;BMP180;5768;51.476;7.210;2024-03-02T08:37:29;98878.00;;;13.40
11424;BMP180;5768;51.476;7.210;2024-03-02T08:42:33;98871.00;;;13.40
11424;BMP180;5768;51.476;7.210;2024-03-02T08:47:35;98879.00;;;13.40
11424;BMP180;5768;51.476;7.210;2024-03-02T08:52:38;98881.00;;;13.50
11424;BMP180;5768;51.476;7.210;2024-03-02T08:57:42;98880.00;;;13.50
11424;BMP180;5768;51.476;7.210;2024-03-02T09:02:44;98873.00;;;13.60
11424;BMP180;5768;51.476;7.210;2024-03-02T09:07:47;98887.00;;;13.80
11424;BMP180;5768;51.476;7.210;2024-03-02T09:12:50;98872.00;;;13.90
11424;BMP180;5768;51.476;7.210;2024-03-02T09:17:52;98891.00;;;14.00
11424;BMP180;5768;51.476;7.210;2024-03-02T09:22:55;98882.00;;;14.10
11424;BMP180;5768;51.476;7.210;2024-03-02T09:27:58;98888.00;;;14.20
11424;BMP180;5768;51.476;7.210;2024-03-02T09:33:04;98916.00;;;14.30
11424;BMP180;5768;51.476;7.210;2024-03-02T09:38:06;98886.00;;;14.30
11424;BMP180;5768;51.476;7.210;2024-03-02T09:43:10;98898.00;;;14.40
11424;BMP180;5768;51.476;7.210;2024-03-02T09:48:13;98884.00;;;14.50
11424;BMP180;5768;51.476;7.210;2024-03-02T09:53:16;98895.00;;;14.50
11424;BMP180;5768;51.476;7.210;2024-03-02T09:58:20;98893.00;;;14.60
11424;BMP180;5768;51.476;7.210;2024-03-02T10:03:23;98886.00;;;14.70
11424;BMP180;5768;51.476;7.210;2024-03-02T10:08:26;98880.00;;;14.80
11424;BMP180;5768;51.476;7.210;2024-03-02T10:13:29;98878.00;;;14.90
11424;BMP180;5768;51.476;7.210;2024-03-02T10:18:35;98885.00;;;15.00
11424;BMP180;5768;51.476;7.210;2024-03-02T10:23:37;98881.00;;;15.20
11424;BMP180;5768;51.476;7.210;2024-03-02T10:28:46;98881.00;;;15.30
11424;BMP180;5768;51.476;7.210;2024-03-02T10:33:50;98874.00;;;15.30
11424;BMP180;5768;51.476;7.210;2024-03-02T10:38:52;98874.00;;;15.50
11424;BMP180;5768;51.476;7.210;2024-03-02T10:43:59;98879.00;;;15.60
11424;BMP180;5768;51.476;7.210;2024-03-02T10:49:03;98882.00;;;15.70
11424;BMP180;5768;51.476;7.210;2024-03-02T10:54:05;98879.00;;;15.80
11424;BMP180;5768;51.476;7.210;2024-03-02T10:59:21;98873.00;;;15.90
11424;BMP180;5768;51.476;7.210;2024-03-02T11:04:27;98870.00;;;16.00
11424;BMP180;5768;51.476;7.210;2024-03-02T11:09:34;98855.00;;;16.00
11424;BMP180;5768;51.476;7.210;2024-03-02T11:14:41;98857.00;;;16.20
11424;BMP180;5768;51.476;7.210;2024-03-02T11:19:46;98843.00;;;16.30
11424;BMP180;5768;51.476;7.210;2024-03-02T11:24:50;98854.00;;;16.40
11424;BMP180;5768;51.476;7.210;2024-03-02T11:29:57;98858.00;;;16.70
11424;BMP180;5768;51.476;7.210;2024-03-02T11:35:03;98848.00;;;16.90
11424;BMP180;5768;51.476;7.210;2024-03-02T11:40:09;98839.00;;;17.10
11424;BMP180;5768;51.476;7.210;2024-03-02T11:45:17;98839.00;;;17.30
11424;BMP180;5768;51.476;7.210;2024-03-02T11:50:29;98842.00;;;17.60
11424;BMP180;5768;51.476;7.210;2024-03-02T11:55:33;98846.00;;;17.90
11424;BMP180;5768;51.476;7.210;2024-03-02T12:00:38;98844.00;;;18.00
11424;BMP180;5768;51.476;7.210;2024-03-02T12:05:42;98833.00;;;18.30
11424;BMP180;5768;51.476;7.210;2024-03-02T12:10:57;98830.00;;;18.40
11424;BMP180;5768;51.476;7.210;2024-03-02T12:16:01;98830.00;;;18.60
11424;BMP180;5768;51.476;7.210;2024-03-02T12:21:04;98828.00;;;18.90
11424;BMP180;5768;51.476;7.210;2024-03-02T12:26:09;98823.00;;;19.30
11424;BMP180;5768;51.476;7.210;2024-03-02T12:31:13;98823.00;;;19.40
11424;BMP180;5768;51.476;7.210;2024-03-02T12:36:15;98816.00;;;19.80
11424;BMP180;5768;51.476;7.210;2024-03-02T12:41:18;98814.00;;;19.90
11424;BMP180;5768;51.476;7.210;2024-03-02T12:46:22;98815.00;;;20.20
11424;BMP180;5768;51.476;7.210;2024-03-02T12:51:24;98801.00;;;20.40
11424;BMP180;5768;51.476;7.210;2024-03-02T12:56:27;98803.00;;;20.60
11424;BMP180;5768;51.476;7.210;2024-03-02T13:01:31;98806.00;;;20.80
11424;BMP180;5768;51.476;7.210;2024-03-02T13:06:34;98809.00;;;21.10
11424;BMP180;5768;51.476;7.210;2024-03-02T13:11:37;98800.00;;;21.50
11424;BMP180;5768;51.476;7.210;2024-03-02T13:16:41;98797.00;;;21.90
11424;BMP180;5768;51.476;7.210;2024-03-02T13:21:44;98803.00;;;21.70
11424;BMP180;5768;51.476;7.210;2024-03-02T13:26:52;98808.00;;;21.60
11424;BMP180;5768;51.476;7.210;2024-03-02T13:32:06;98802.00;;;21.70
11424;BMP180;5768;51.476;7.210;2024-03-02T13:37:10;98797.00;;;21.30
11424;BMP180;5768;51.476;7.210;2024-03-02T13:42:13;98792.00;;;20.90
11424;BMP180;5768;51.476;7.210;2024-03-02T13:47:17;98794.00;;;20.60
11424;BMP180;5768;51.476;7.210;2024-03-02T13:52:20;98786.00;;;20.40
11424;BMP180;5768;51.476;7.210;2024-03-02T13:57:23;98776.00;;;20.30
11424;BMP180;5768;51.476;7.210;2024-03-02T14:02:28;98762.00;;;20.60
11424;BMP180;5768;51.476;7.210;2024-03-02T14:07:31;98773.00;;;21.10
11424;BMP180;5768;51.476;7.210;2024-03-02T14:12:34;98783.00;;;21.40
11424;BMP180;5768;51.476;7.210;2024-03-02T14:17:39;98777.00;;;21.20
11424;BMP180;5768;51.476;7.210;2024-03-02T14:22:41;98767.00;;;20.80
11424;BMP180;5768;51.476;7.210;2024-03-02T14:27:45;98763.00;;;20.40
11424;BMP180;5768;51.476;7.210;2024-03-02T14:32:53;98743.00;;;20.20
11424;BMP180;5768;51.476;7.210;2024-03-02T14:37:56;98737.00;;;20.20
11424;BMP180;5768;51.476;7.210;2024-03-02T14:42:59;98747.00;;;20.10
11424;BMP180;5768;51.476;7.210;2024-03-02T14:48:04;98745.00;;;20.10
11424;BMP180;5768;51.476;7.210;2024-03-02T14:53:09;98739.00;;;20.10
11424;BMP180;5768;51.476;7.210;2024-03-02T14:58:15;98740.00;;;20.00
11424;BMP180;5768;51.476;7.210;2024-03-02T15:03:19;98731.00;;;20.00
11424;BMP180;5768;51.476;7.210;2024-03-02T15:08:21;98740.00;;;19.70
11424;BMP180;5768;51.476;7.210;2024-03-02T15:13:24;98747.00;;;19.50
11424;BMP180;5768;51.476;7.210;2024-03-02T15:18:29;98746.00;;;19.40
11424;BMP180;5768;51.476;7.210;2024-03-02T15:23:34;98740.00;;;19.30
11424;BMP180;5768;51.476;7.210;2024-03-02T15:28:38;98732.00;;;19.20
11424;BMP180;5768;51.476;7.210;2024-03-02T15:33:43;98732.00;;;19.00
11424;BMP180;5768;51.476;7.210;2024-03-02T15:38:46;98725.00;;;18.90
11424;BMP180;5768;51.476;7.210;2024-03-02T15:43:48;98733.00;;;18.90
11424;BMP180;5768;51.476;7.210;2024-03-02T15:48:52;98728.00;;;20.30
11424;BMP180;5768;51.476;7.210;2024-03-02T15:53:58;98742.00;;;20.00
11424;BMP180;5768;51.476;7.210;2024-03-02T15:59:08;98712.00;;;19.30
11424;BMP180;5768;51.476;7.210;2024-03-02T16:04:11;98714.00;;;18.90
11424;BMP180;5768;51.476;7.210;2024-03-02T16:09:14;98718.00;;;18.70
11424;BMP180;5768;51.476;7.210;2024-03-02T16:14:16;98726.00;;;18.60
11424;BMP180;5768;51.476;7.210;2024-03-02T16:19:22;98713.00;;;18.40
11424;BMP180;5768;51.476;7.210;2024-03-02T16:24:25;98710.00;;;18.20
11424;BMP180;5768;51.476;7.210;2024-03-02T16:29:30;98724.00;;;18.10
11424;BMP180;5768;51.476;7.210;2024-03-02T16:34:37;98711.00;;;18.00
11424;BMP180;5768;51.476;7.210;2024-03-02T16:39:40;98717.00;;;17.90
11424;BMP180;5768;51.476;7.210;2024-03-02T16:44:42;98720.00;;;17.80
11424;BMP180;5768;51.476;7.210;2024-03-02T16:49:48;98719.00;;;17.70
11424;BMP180;5768;51.476;7.210;2024-03-02T16:54:55;98717.00;;;17.50
11424;BMP180;5768;51.476;7.210;2024-03-02T16:59:58;98727.00;;;17.40
11424;BMP180;5768;51.476;7.210;2024-03-02T17:05:02;98722.00;;;17.20
11424;BMP180;5768;51.476;7.210;2024-03-02T17:10:08;98733.00;;;16.90
11424;BMP180;5768;51.476;7.210;2024-03-02T17:15:11;98728.00;;;16.80
11424;BMP180;5768;51.476;7.210;2024-03-02T17:20:18;98724.00;;;16.60
11424;BMP180;5768;51.476;7.210;2024-03-02T17:25:21;98735.00;;;16.50
11424;BMP180;5768;51.476;7.210;2024-03-02T17:30:33;98732.00;;;16.40
11424;BMP180;5768;51.476;7.210;2024-03-02T17:35:40;98734.00;;;16.40
11424;BMP180;5768;51.476;7.210;2024-03-02T17:40:46;98735.00;;;16.30
11424;BMP180;5768;51.476;7.210;2024-03-02T17:45:48;98743.00;;;16.30
11424;BMP180;5768;51.476;7.210;2024-03-02T17:50:52;98738.00;;;16.30
11424;BMP180;5768;51.476;7.210;2024-03-02T17:55:57;98755.00;;;16.30
11424;BMP180;5768;51.476;7.210;2024-03-02T18:01:00;98756.00;;;16.30
11424;BMP180;5768;51.476;7.210;2024-03-02T18:06:08;98772.00;;;16.30
11424;BMP180;5768;51.476;7.210;2024-03-02T18:11:15;98766.00;;;16.20
11424;BMP180;5768;51.476;7.210;2024-03-02T18:16:17;98764.00;;;16.20
11424;BMP180;5768;51.476;7.210;2024-03-02T18:21:21;98769.00;;;16.20
11424;BMP180;5768;51.476;7.210;2024-03-02T18:26:24;98773.00;;;16.20
11424;BMP180;5768;51.476;7.210;2024-03-02T18:31:28;98772.00;;;16.30
11424;BMP180;5768;51.476;7.210;2024-03-02T18:36:38;98777.00;;;16.30
11424;BMP180;5768;51.476;7.210;2024-03-02T18:41:46;98757.00;;;16.30
11424;BMP180;5768;51.476;7.210;2024-03-02T18:46:52;98756.00;;;16.30
11424;BMP180;5768;51.476;7.210;2024-03-02T18:51:57;98763.00;;;16.30
11424;BMP180;5768;51.476;7.210;2024-03-02T18:57:00;98762.00;;;16.30
11424;BMP180;5768;51.476;7.210;2024-03-02T19:02:02;98764.00;;;16.20
11424;BMP180;5768;51.476;7.210;2024-03-02T19:07:07;98746.00;;;16.10
11424;BMP180;5768;51.476;7.210;2024-03-02T19:12:11;98756.00;;;16.00
11424;BMP180;5768;51.476;7.210;2024-03-02T19:17:14;98744.00;;;15.90
11424;BMP180;5768;51.476;7.210;2024-03-02T19:22:18;98748.00;;;15.90
11424;BMP180;5768;51.476;7.210;2024-03-02T19:27:26;98747.00;;;15.80
11424;BMP180;5768;51.476;7.210;2024-03-02T19:32:28;98750.00;;;15.70
11424;BMP180;5768;51.476;7.210;2024-03-02T19:37:33;98735.00;;;15.70
11424;BMP180;5768;51.476;7.210;2024-03-02T19:42:42;98731.00;;;15.60
11424;BMP180;5768;51.476;7.210;2024-03-02T19:47:48;98741.00;;;15.60
11424;BMP180;5768;51.476;7.210;2024-03-02T19:52:52;98733.00;;;15.60
11424;BMP180;5768;51.476;7.210;2024-03-02T19:57:55;98724.00;;;15.60
11424;BMP180;5768;51.476;7.210;2024-03-02T20:02:58;98733.00;;;15.50
11424;BMP180;5768;51.476;7.210;2024-03-02T20:08:02;98737.00;;;15.50
11424;BMP180;5768;51.476;7.210;2024-03-02T20:13:10;98720.00;;;15.40
11424;BMP180;5768;51.476;7.210;2024-03-02T20:18:25;98724.00;;;15.30
11424;BMP180;5768;51.476;7.210;2024-03-02T20:23:32;98728.00;;;15.30
11424;BMP180;5768;51.476;7.210;2024-03-02T20:28:37;98721.00;;;15.30
11424;BMP180;5768;51.476;7.210;2024-03-02T20:33:40;98728.00;;;15.40
11424;BMP180;5768;51.476;7.210;2024-03-02T20:38:44;98731.00;;;15.40
11424;BMP180;5768;51.476;7.210;2024-03-02T20:43:50;98717.00;;;15.30
11424;BMP180;5768;51.476;7.210;2024-03-02T20:48:53;98715.00;;;15.30
11424;BMP180;5768;51.476;7.210;2024-03-02T20:54:00;98706.00;;;15.30
11424;BMP180;5768;51.476;7.210;2024-03-02T20:59:05;98698.00;;;15.40
11424;BMP180;5768;51.476;7.210;2024-03-02T21:04:08;98707.00;;;15.40
11424;BMP180;5768;51.476;7.210;2024-03-02T21:09:19;98703.00;;;15.40
11424;BMP180;5768;51.476;7.210;2024-03-02T21:14:22;98686.00;;;15.40
11424;BMP180;5768;51.476;7.210;2024-03-02T21:19:24;98695.00;;;15.20
11424;BMP180;5768;51.476;7.210;2024-03-02T21:24:28;98705.00;;;14.90
11424;BMP180;5768;51.476;7.210;2024-03-02T21:29:33;98697.00;;;14.80
11424;BMP180;5768;51.476;7.210;2024-03-02T21:34:35;98696.00;;;14.90
11424;BMP180;5768;51.476;7.210;2024-03-02T21:39:43;98693.00;;;14.90
11424;BMP180;5768;51.476;7.210;2024-03-02T21:44:48;98681.00;;;14.80
11424;BMP180;5768;51.476;7.210;2024-03-02T21:49:51;98710.00;;;14.60
11424;BMP180;5768;51.476;7.210;2024-03-02T21:54:55;98693.00;;;14.50
11424;BMP180;5768;51.476;7.210;2024-03-02T21:59:57;98702.00;;;14.40
11424;BMP180;5768;51.476;7.210;2024-03-02T22:05:00;98698.00;;;14.30
11424;BMP180;5768;51.476;7.210;2024-03-02T22:10:05;98695.00;;;14.20
11424;BMP180;5768;51.476;7.210;2024-03-02T22:15:09;98688.00;;;14.10
11424;BMP180;5768;51.476;7.210;2024-03-02T22:20:11;98686.00;;;14.00
11424;BMP180;5768;51.476;7.210;2024-03-02T22:25:15;98691.00;;;14.00
11424;BMP180;5768;51.476;7.210;2024-03-02T22:30:17;98687.00;;;14.00
11424;BMP180;5768;51.476;7.210;2024-03-02T22:35:19;98688.00;;;14.10
11424;BMP180;5768;51.476;7.210;2024-03-02T22:40:23;98675.00;;;14.10
11424;BMP180;5768;51.476;7.210;2024-03-02T22:45:25;98678.00;;;14.20
11424;BMP180;5768;51.476;7.210;2024-03-02T22:50:27;98674.00;;;14.30
11424;BMP180;5768;51.476;7.210;2024-03-02T22:55:31;98686.00;;;14.30
11424;BMP180;5768;51.476;7.210;2024-03-02T23:00:33;98685.00;;;14.40
11424;BMP180;5768;51.476;7.210;2024-03-02T23:05:37;98689.00;;;14.30
11424;BMP180;5768;51.476;7.210;2024-03-02T23:10:40;98695.00;;;14.30
11424;BMP180;5768;51.476;7.210;2024-03-02T23:15:43;98686.00;;;14.20
11424;BMP180;5768;51.476;7.210;2024-03-02T23:20:45;98697.00;;;14.20
11424;BMP180;5768;51.476;7.210;2024-03-02T23:25:49;98710.00;;;14.20
11424;BMP180;5768;51.476;7.210;2024-03-02T23:30:52;98695.00;;;14.20
11424;BMP180;5768;51.476;7.210;2024-03-02T23:35:54;98702.00;;;14.20
11424;BMP180;5768;51.476;7.210;2024-03-02T23:40:58;98691.00;;;14.10
11424;BMP180;5768;51.476;7.210;2024-03-02T23:46:11;98686.00;;;14.10
11424;BMP180;5768;51.476;7.210;2024-03-02T23:51:13;98675.00;;;14.10
11424;BMP180;5768;51.476;7.210;2024-03-02T23:56:17;98684.00;;;14.10
